createdAt,value
2019-01-04T00:00:00.808Z,0.00
2019-01-04T00:01:00.795Z,0.00
2019-01-04T00:02:00.788Z,0.00
2019-01-04T00:03:00.761Z,0.00
2019-01-04T00:04:00.755Z,0.00
2019-01-04T00:05:00.741Z,0.00
2019-01-04T00:06:00.727Z,0.00
2019-01-04T00:07:00.714Z,0.00
2019-01-04T00:08:00.701Z,0.00
2019-01-04T00:09:00.684Z,0.00
2019-01-04T00:10:00.672Z,0.00
2019-01-04T00:11:00.665Z,0.00
2019-01-04T00:12:00.648Z,0.00
2019-01-04T00:13:00.634Z,0.00
2019-01-04T00:14:00.612Z,0.00
2019-01-04T00:15:00.603Z,0.00
2019-01-04T00:16:00.592Z,0.00
2019-01-04T00:17:00.580Z,0.00
2019-01-04T00:18:00.565Z,0.00
2019-01-04T00:19:00.547Z,0.00
2019-01-04T00:20:00.537Z,0.00
2019-01-04T00:21:00.539Z,0.00
2019-01-04T00:22:00.510Z,0.00
2019-01-04T00:23:00.499Z,0.00
2019-01-04T00:24:00.487Z,0.00
2019-01-04T00:25:00.474Z,0.00
2019-01-04T00:26:00.452Z,0.00
2019-01-04T00:27:00.445Z,0.00
2019-01-04T00:28:00.435Z,0.00
2019-01-04T00:29:02.208Z,0.00
2019-01-04T00:30:00.403Z,0.00
2019-01-04T00:31:00.396Z,0.00
2019-01-04T00:32:00.383Z,0.00
2019-01-04T00:33:00.365Z,0.00
2019-01-04T00:34:00.353Z,0.00
2019-01-04T00:35:00.339Z,0.00
2019-01-04T00:36:00.329Z,0.00
2019-01-04T00:37:00.314Z,0.00
2019-01-04T00:38:00.300Z,0.00
2019-01-04T00:39:00.286Z,0.00
2019-01-04T00:40:00.269Z,0.00
2019-01-04T00:41:00.262Z,0.00
2019-01-04T00:42:00.252Z,0.00
2019-01-04T00:43:00.240Z,0.00
2019-01-04T00:44:00.224Z,0.00
2019-01-04T00:45:00.235Z,0.00
2019-01-04T00:46:00.220Z,0.00
2019-01-04T00:47:00.183Z,0.00
2019-01-04T00:48:00.169Z,0.00
2019-01-04T00:49:00.160Z,0.00
2019-01-04T00:50:00.188Z,0.00
2019-01-04T00:51:00.128Z,0.00
2019-01-04T00:52:00.122Z,0.00
2019-01-04T00:53:00.102Z,0.00
2019-01-04T00:54:00.092Z,0.00
2019-01-04T00:55:00.213Z,0.00
2019-01-04T00:56:00.065Z,0.00
2019-01-04T00:57:00.058Z,0.00
2019-01-04T00:58:00.040Z,0.00
2019-01-04T00:59:00.057Z,0.00
2019-01-04T01:00:00.014Z,0.00
2019-01-04T01:00:59.998Z,0.00
2019-01-04T01:01:59.986Z,0.00
2019-01-04T01:02:59.979Z,0.00
2019-01-04T01:03:59.963Z,0.00
2019-01-04T01:04:59.950Z,0.00
2019-01-04T01:05:59.936Z,0.00
2019-01-04T01:06:59.923Z,0.00
2019-01-04T01:07:59.913Z,0.00
2019-01-04T01:08:59.911Z,0.00
2019-01-04T01:09:59.888Z,0.00
2019-01-04T01:10:59.871Z,0.00
2019-01-04T01:11:59.859Z,0.00
2019-01-04T01:12:59.846Z,0.00
2019-01-04T01:13:59.831Z,0.00
2019-01-04T01:14:59.820Z,0.00
2019-01-04T01:15:59.807Z,0.00
2019-01-04T01:16:59.794Z,0.00
2019-01-04T01:17:59.794Z,0.00
2019-01-04T01:18:59.768Z,0.00
2019-01-04T01:19:59.755Z,0.00
2019-01-04T01:20:59.740Z,0.00
2019-01-04T01:21:59.728Z,0.00
2019-01-04T01:22:59.724Z,0.00
2019-01-04T01:23:59.704Z,0.00
2019-01-04T01:24:59.693Z,0.00
2019-01-04T01:25:59.679Z,0.00
2019-01-04T01:26:59.706Z,0.00
2019-01-04T01:27:59.654Z,0.00
2019-01-04T01:28:59.640Z,0.00
2019-01-04T01:29:59.627Z,0.00
2019-01-04T01:30:59.601Z,0.00
2019-01-04T01:31:59.603Z,0.00
2019-01-04T01:32:59.589Z,0.00
2019-01-04T01:33:59.579Z,0.00
2019-01-04T01:34:59.563Z,0.00
2019-01-04T01:35:59.552Z,0.00
2019-01-04T01:36:59.530Z,0.00
2019-01-04T01:37:59.525Z,0.00
2019-01-04T01:38:59.551Z,0.00
2019-01-04T01:39:59.502Z,0.00
2019-01-04T01:40:59.486Z,0.00
2019-01-04T01:41:59.475Z,0.00
2019-01-04T01:42:59.460Z,0.00
2019-01-04T01:43:59.455Z,0.00
2019-01-04T01:44:59.436Z,0.00
2019-01-04T01:45:59.425Z,0.00
2019-01-04T01:46:59.398Z,0.00
2019-01-04T01:47:59.399Z,0.00
2019-01-04T01:48:59.382Z,0.00
2019-01-04T01:49:59.371Z,0.00
2019-01-04T01:50:59.358Z,0.00
2019-01-04T01:51:59.352Z,0.00
2019-01-04T01:52:59.335Z,0.00
2019-01-04T01:53:59.327Z,0.00
2019-01-04T01:54:59.309Z,0.00
2019-01-04T01:55:59.297Z,0.00
2019-01-04T01:56:59.285Z,0.00
2019-01-04T01:57:59.280Z,0.00
2019-01-04T01:58:59.278Z,0.00
2019-01-04T01:59:59.256Z,0.00
2019-01-04T02:00:59.232Z,0.00
2019-01-04T02:01:59.219Z,0.00
2019-01-04T02:02:59.206Z,0.00
2019-01-04T02:03:59.198Z,0.00
2019-01-04T02:04:59.179Z,0.00
2019-01-04T02:05:59.168Z,0.00
2019-01-04T02:06:59.154Z,0.00
2019-01-04T02:07:59.143Z,0.00
2019-01-04T02:08:59.126Z,0.00
2019-01-04T02:09:59.113Z,0.00
2019-01-04T02:10:59.103Z,0.00
2019-01-04T02:11:59.093Z,0.00
2019-01-04T02:12:59.078Z,0.00
2019-01-04T02:13:59.059Z,0.00
2019-01-04T02:14:59.052Z,0.00
2019-01-04T02:15:59.040Z,0.00
2019-01-04T02:16:59.030Z,0.00
2019-01-04T02:17:59.014Z,0.00
2019-01-04T02:18:59.000Z,0.00
2019-01-04T02:19:58.989Z,0.00
2019-01-04T02:20:58.974Z,0.00
2019-01-04T02:21:58.963Z,0.00
2019-01-04T02:22:58.948Z,0.00
2019-01-04T02:23:58.935Z,0.00
2019-01-04T02:24:58.923Z,0.00
2019-01-04T02:25:58.916Z,0.00
2019-01-04T02:26:58.895Z,0.00
2019-01-04T02:27:58.887Z,0.00
2019-01-04T02:28:58.869Z,0.00
2019-01-04T02:29:58.854Z,0.00
2019-01-04T02:30:58.849Z,0.00
2019-01-04T02:31:58.835Z,0.00
2019-01-04T02:32:58.819Z,0.00
2019-01-04T02:33:58.804Z,0.00
2019-01-04T02:34:58.787Z,0.00
2019-01-04T02:35:58.775Z,0.00
2019-01-04T02:36:58.765Z,0.00
2019-01-04T02:37:58.749Z,0.00
2019-01-04T02:38:58.739Z,0.00
2019-01-04T02:39:58.721Z,0.00
2019-01-04T02:40:58.709Z,0.00
2019-01-04T02:41:58.696Z,0.00
2019-01-04T02:42:58.685Z,0.00
2019-01-04T02:43:58.674Z,0.00
2019-01-04T02:44:58.654Z,0.00
2019-01-04T02:45:58.640Z,0.00
2019-01-04T02:46:58.634Z,0.00
2019-01-04T02:47:58.619Z,0.00
2019-01-04T02:48:58.602Z,0.00
2019-01-04T02:49:58.635Z,0.00
2019-01-04T02:50:58.622Z,0.00
2019-01-04T02:51:58.562Z,0.00
2019-01-04T02:52:58.549Z,0.00
2019-01-04T02:53:58.535Z,0.00
2019-01-04T02:54:58.518Z,0.00
2019-01-04T02:55:58.508Z,0.00
2019-01-04T02:56:58.494Z,0.00
2019-01-04T02:57:58.505Z,0.00
2019-01-04T02:58:58.467Z,0.00
2019-01-04T02:59:58.451Z,0.00
2019-01-04T03:00:58.439Z,0.00
2019-01-04T03:01:58.427Z,0.00
2019-01-04T03:02:58.418Z,0.00
2019-01-04T03:03:58.399Z,0.00
2019-01-04T03:04:58.387Z,0.00
2019-01-04T03:05:58.372Z,0.00
2019-01-04T03:06:58.359Z,0.00
2019-01-04T03:07:58.350Z,0.00
2019-01-04T03:08:58.336Z,0.00
2019-01-04T03:09:58.318Z,0.00
2019-01-04T03:10:58.304Z,0.00
2019-01-04T03:11:58.292Z,0.00
2019-01-04T03:12:58.280Z,0.00
2019-01-04T03:13:58.266Z,0.00
2019-01-04T03:14:58.253Z,0.00
2019-01-04T03:15:58.239Z,0.00
2019-01-04T03:16:58.226Z,0.00
2019-01-04T03:17:58.212Z,0.00
2019-01-04T03:18:58.249Z,0.00
2019-01-04T03:19:58.186Z,0.00
2019-01-04T03:20:58.173Z,0.00
2019-01-04T03:21:58.165Z,0.00
2019-01-04T03:22:58.145Z,0.00
2019-01-04T03:23:58.133Z,0.00
2019-01-04T03:24:58.119Z,0.00
2019-01-04T03:25:58.115Z,0.00
2019-01-04T03:26:58.096Z,0.00
2019-01-04T03:27:58.081Z,0.00
2019-01-04T03:28:58.067Z,0.00
2019-01-04T03:29:58.058Z,0.00
2019-01-04T03:30:58.039Z,0.00
2019-01-04T03:31:58.034Z,0.00
2019-01-04T03:32:58.017Z,0.00
2019-01-04T03:33:58.004Z,0.00
2019-01-04T03:34:57.979Z,0.00
2019-01-04T03:35:57.974Z,0.00
2019-01-04T03:36:57.968Z,0.00
2019-01-04T03:37:57.953Z,0.00
2019-01-04T03:38:57.939Z,0.00
2019-01-04T03:39:57.926Z,0.00
2019-01-04T03:40:57.914Z,0.00
2019-01-04T03:41:57.899Z,0.00
2019-01-04T03:42:57.906Z,0.00
2019-01-04T03:43:57.884Z,0.00
2019-01-04T03:44:57.872Z,0.00
2019-01-04T03:45:57.850Z,0.00
2019-01-04T03:46:57.835Z,0.00
2019-01-04T03:47:57.831Z,0.00
2019-01-04T03:48:57.811Z,0.00
2019-01-04T03:49:57.797Z,0.00
2019-01-04T03:50:57.784Z,0.00
2019-01-04T03:51:57.773Z,0.00
2019-01-04T03:52:57.763Z,0.00
2019-01-04T03:53:57.746Z,0.00
2019-01-04T03:54:57.727Z,0.00
2019-01-04T03:55:57.794Z,0.00
2019-01-04T03:56:57.714Z,0.00
2019-01-04T03:57:57.697Z,0.00
2019-01-04T03:58:57.681Z,0.00
2019-01-04T03:59:57.671Z,0.00
2019-01-04T04:00:57.657Z,0.00
2019-01-04T04:01:57.636Z,0.00
2019-01-04T04:02:57.629Z,0.00
2019-01-04T04:03:57.616Z,0.00
2019-01-04T04:04:57.636Z,0.00
2019-01-04T04:05:57.593Z,0.00
2019-01-04T04:06:57.579Z,0.00
2019-01-04T04:07:57.571Z,0.00
2019-01-04T04:08:57.551Z,0.00
2019-01-04T04:09:57.538Z,0.00
2019-01-04T04:10:57.530Z,0.00
2019-01-04T04:11:57.511Z,0.00
2019-01-04T04:12:57.501Z,0.00
2019-01-04T04:13:57.503Z,0.00
2019-01-04T04:14:57.483Z,0.00
2019-01-04T04:15:57.452Z,0.00
2019-01-04T04:16:57.451Z,0.00
2019-01-04T04:17:57.436Z,0.00
2019-01-04T04:18:57.425Z,0.00
2019-01-04T04:19:57.412Z,0.00
2019-01-04T04:20:57.398Z,0.00
2019-01-04T04:21:57.384Z,0.00
2019-01-04T04:22:57.372Z,0.00
2019-01-04T04:23:57.360Z,0.00
2019-01-04T04:24:57.347Z,0.00
2019-01-04T04:25:57.334Z,0.00
2019-01-04T04:26:57.326Z,0.00
2019-01-04T04:27:57.306Z,0.00
2019-01-04T04:28:57.293Z,0.00
2019-01-04T04:29:57.282Z,0.00
2019-01-04T04:30:57.269Z,0.00
2019-01-04T04:31:57.260Z,0.00
2019-01-04T04:32:57.248Z,0.00
2019-01-04T04:33:57.232Z,0.00
2019-01-04T04:34:57.219Z,0.00
2019-01-04T04:35:57.205Z,0.00
2019-01-04T04:36:57.192Z,0.00
2019-01-04T04:37:57.178Z,0.00
2019-01-04T04:38:57.164Z,0.00
2019-01-04T04:39:57.153Z,0.00
2019-01-04T04:40:57.150Z,0.00
2019-01-04T04:41:57.131Z,0.00
2019-01-04T04:42:57.117Z,0.00
2019-01-04T04:43:57.102Z,0.00
2019-01-04T04:44:57.087Z,0.00
2019-01-04T04:45:57.117Z,0.00
2019-01-04T04:46:59.412Z,0.00
2019-01-04T04:47:57.053Z,0.00
2019-01-04T04:48:57.036Z,0.00
2019-01-04T04:49:57.026Z,0.00
2019-01-04T04:50:57.014Z,0.00
2019-01-04T04:51:57.002Z,0.00
2019-01-04T04:52:56.987Z,0.00
2019-01-04T04:53:56.976Z,0.00
2019-01-04T04:54:56.966Z,0.00
2019-01-04T04:55:56.967Z,0.00
2019-01-04T04:56:56.936Z,0.00
2019-01-04T04:57:56.922Z,0.00
2019-01-04T04:58:56.951Z,0.00
2019-01-04T04:59:56.896Z,0.00
2019-01-04T05:00:56.890Z,0.00
2019-01-04T05:01:56.870Z,0.00
2019-01-04T05:02:56.857Z,0.00
2019-01-04T05:03:56.847Z,0.00
2019-01-04T05:04:56.830Z,0.00
2019-01-04T05:05:56.841Z,0.00
2019-01-04T05:06:56.806Z,0.00
2019-01-04T05:07:56.793Z,0.00
2019-01-04T05:08:56.781Z,0.00
2019-01-04T05:09:56.772Z,0.00
2019-01-04T05:10:56.753Z,0.00
2019-01-04T05:11:56.739Z,0.00
2019-01-04T05:12:56.729Z,0.00
2019-01-04T05:13:56.714Z,0.00
2019-01-04T05:14:56.703Z,0.00
2019-01-04T05:15:56.691Z,0.00
2019-01-04T05:16:56.679Z,0.00
2019-01-04T05:17:56.674Z,0.00
2019-01-04T05:18:56.652Z,0.00
2019-01-04T05:19:56.630Z,0.00
2019-01-04T05:20:56.623Z,0.00
2019-01-04T05:21:56.611Z,0.00
2019-01-04T05:22:56.600Z,0.00
2019-01-04T05:23:56.584Z,0.00
2019-01-04T05:24:56.569Z,0.00
2019-01-04T05:25:56.557Z,0.00
2019-01-04T05:26:56.550Z,0.00
2019-01-04T05:27:56.534Z,0.00
2019-01-04T05:28:56.520Z,0.00
2019-01-04T05:29:56.531Z,0.00
2019-01-04T05:30:56.491Z,0.00
2019-01-04T05:31:56.496Z,0.00
2019-01-04T05:32:56.473Z,0.00
2019-01-04T05:33:56.453Z,0.00
2019-01-04T05:34:56.429Z,0.00
2019-01-04T05:35:56.425Z,0.00
2019-01-04T05:36:56.472Z,0.00
2019-01-04T05:37:58.277Z,0.00
2019-01-04T05:38:56.390Z,0.00
2019-01-04T05:39:56.378Z,0.00
2019-01-04T05:40:56.363Z,0.00
2019-01-04T05:41:56.364Z,0.00
2019-01-04T05:42:56.334Z,0.00
2019-01-04T05:43:56.321Z,0.00
2019-01-04T05:44:56.310Z,0.00
2019-01-04T05:45:56.295Z,0.00
2019-01-04T05:46:56.280Z,0.00
2019-01-04T05:47:56.269Z,0.00
2019-01-04T05:48:56.259Z,0.00
2019-01-04T05:49:56.240Z,0.00
2019-01-04T05:50:56.231Z,0.00
2019-01-04T05:51:56.215Z,0.00
2019-01-04T05:52:56.202Z,0.00
2019-01-04T05:53:56.192Z,0.00
2019-01-04T05:54:56.182Z,0.00
2019-01-04T05:55:56.162Z,0.00
2019-01-04T05:56:56.149Z,0.00
2019-01-04T05:57:56.135Z,0.00
2019-01-04T05:58:56.124Z,0.00
2019-01-04T05:59:56.111Z,0.00
2019-01-04T06:00:56.090Z,0.00
2019-01-04T06:01:56.082Z,0.00
2019-01-04T06:02:56.069Z,0.00
2019-01-04T06:03:56.056Z,0.00
2019-01-04T06:04:56.043Z,0.00
2019-01-04T06:05:56.034Z,0.00
2019-01-04T06:06:56.014Z,0.00
2019-01-04T06:07:56.009Z,0.00
2019-01-04T06:08:55.989Z,0.00
2019-01-04T06:09:55.974Z,0.00
2019-01-04T06:10:55.962Z,0.00
2019-01-04T06:11:55.951Z,0.00
2019-01-04T06:12:55.938Z,0.00
2019-01-04T06:13:55.922Z,0.00
2019-01-04T06:14:55.910Z,0.00
2019-01-04T06:15:55.895Z,0.00
2019-01-04T06:16:55.884Z,0.00
2019-01-04T06:17:55.871Z,0.00
2019-01-04T06:18:55.854Z,0.00
2019-01-04T06:19:55.843Z,0.00
2019-01-04T06:20:55.833Z,0.00
2019-01-04T06:21:55.819Z,0.00
2019-01-04T06:22:55.804Z,0.00
2019-01-04T06:23:55.791Z,0.00
2019-01-04T06:24:55.779Z,0.00
2019-01-04T06:25:55.766Z,0.00
2019-01-04T06:26:55.752Z,0.00
2019-01-04T06:27:55.735Z,0.00
2019-01-04T06:28:55.725Z,0.00
2019-01-04T06:29:55.710Z,0.00
2019-01-04T06:30:55.740Z,0.00
2019-01-04T06:31:55.682Z,0.00
2019-01-04T06:32:55.677Z,0.00
2019-01-04T06:33:55.659Z,0.00
2019-01-04T06:34:55.649Z,0.00
2019-01-04T06:35:55.635Z,0.00
2019-01-04T06:36:55.614Z,0.00
2019-01-04T06:37:55.608Z,0.00
2019-01-04T06:38:55.594Z,0.00
2019-01-04T06:39:55.583Z,4.00
2019-01-04T06:40:55.568Z,0.00
2019-01-04T06:41:55.557Z,4.00
2019-01-04T06:42:55.544Z,4.00
2019-01-04T06:43:55.538Z,4.00
2019-01-04T06:44:55.520Z,4.00
2019-01-04T06:45:55.506Z,8.00
2019-01-04T06:46:55.515Z,8.00
2019-01-04T06:47:55.481Z,12.00
2019-01-04T06:48:55.465Z,12.00
2019-01-04T06:49:55.455Z,16.00
2019-01-04T06:50:55.441Z,16.00
2019-01-04T06:51:55.436Z,20.00
2019-01-04T06:52:55.418Z,24.00
2019-01-04T06:53:55.404Z,28.00
2019-01-04T06:54:55.391Z,36.00
2019-01-04T06:55:55.381Z,36.00
2019-01-04T06:56:55.368Z,44.00
2019-01-04T06:57:55.352Z,52.00
2019-01-04T06:58:55.330Z,60.00
2019-01-04T06:59:55.327Z,64.00
2019-01-04T07:00:55.313Z,76.00
2019-01-04T07:01:55.302Z,84.00
2019-01-04T07:02:55.288Z,96.00
2019-01-04T07:03:55.274Z,108.00
2019-01-04T07:04:55.273Z,120.00
2019-01-04T07:05:55.249Z,136.00
2019-01-04T07:06:55.239Z,152.00
2019-01-04T07:07:55.215Z,168.00
2019-01-04T07:08:55.214Z,184.00
2019-01-04T07:09:55.195Z,208.00
2019-01-04T07:10:55.229Z,224.00
2019-01-04T07:11:55.174Z,248.00
2019-01-04T07:12:55.148Z,264.00
2019-01-04T07:13:55.140Z,280.00
2019-01-04T07:14:55.130Z,292.00
2019-01-04T07:15:55.117Z,308.00
2019-01-04T07:16:55.105Z,328.00
2019-01-04T07:17:57.728Z,352.00
2019-01-04T07:18:55.097Z,372.00
2019-01-04T07:19:55.059Z,392.00
2019-01-04T07:20:55.052Z,408.00
2019-01-04T07:21:55.048Z,424.00
2019-01-04T07:22:55.030Z,444.00
2019-01-04T07:23:55.013Z,464.00
2019-01-04T07:24:55.020Z,492.00
2019-01-04T07:25:54.988Z,520.00
2019-01-04T07:26:54.974Z,540.00
2019-01-04T07:27:54.962Z,564.00
2019-01-04T07:28:54.941Z,592.00
2019-01-04T07:29:54.936Z,612.00
2019-01-04T07:30:54.927Z,628.00
2019-01-04T07:31:54.911Z,640.00
2019-01-04T07:32:54.898Z,644.00
2019-01-04T07:33:54.886Z,656.00
2019-01-04T07:34:54.871Z,680.00
2019-01-04T07:35:54.871Z,704.00
2019-01-04T07:36:54.849Z,736.00
2019-01-04T07:37:54.835Z,768.00
2019-01-04T07:38:54.815Z,796.00
2019-01-04T07:39:54.806Z,824.00
2019-01-04T07:40:54.797Z,864.00
2019-01-04T07:41:54.782Z,912.00
2019-01-04T07:42:54.778Z,972.00
2019-01-04T07:43:54.766Z,1044.00
2019-01-04T07:44:54.740Z,1128.00
2019-01-04T07:45:54.730Z,1228.00
2019-01-04T07:46:54.734Z,1344.00
2019-01-04T07:47:54.710Z,1464.00
2019-01-04T07:48:54.698Z,1560.00
2019-01-04T07:49:54.683Z,1636.00
2019-01-04T07:50:54.659Z,1680.00
2019-01-04T07:51:54.659Z,1704.00
2019-01-04T07:52:54.642Z,1696.00
2019-01-04T07:53:54.629Z,1688.00
2019-01-04T07:54:54.619Z,1680.00
2019-01-04T07:55:54.599Z,1676.00
2019-01-04T07:56:54.592Z,1672.00
2019-01-04T07:57:54.580Z,1688.00
2019-01-04T07:58:54.567Z,1732.00
2019-01-04T07:59:54.549Z,1820.00
2019-01-04T08:00:54.543Z,1940.00
2019-01-04T08:01:54.540Z,2092.00
2019-01-04T08:02:54.523Z,2264.00
2019-01-04T08:03:54.523Z,2432.00
2019-01-04T08:04:54.497Z,2568.00
2019-01-04T08:05:54.486Z,2624.00
2019-01-04T08:06:54.469Z,2660.00
2019-01-04T08:07:54.467Z,2696.00
2019-01-04T08:08:54.447Z,2764.00
2019-01-04T08:09:54.433Z,2836.00
2019-01-04T08:10:54.414Z,2912.00
2019-01-04T08:11:54.407Z,2968.00
2019-01-04T08:12:54.401Z,3008.00
2019-01-04T08:13:54.406Z,3056.00
2019-01-04T08:14:54.374Z,3096.00
2019-01-04T08:15:54.363Z,3152.00
2019-01-04T08:16:54.351Z,3200.00
2019-01-04T08:17:54.334Z,3220.00
2019-01-04T08:18:54.332Z,3248.00
2019-01-04T08:19:54.310Z,3260.00
2019-01-04T08:20:54.299Z,3260.00
2019-01-04T08:21:54.288Z,3260.00
2019-01-04T08:22:54.272Z,3268.00
2019-01-04T08:23:54.265Z,3324.00
2019-01-04T08:24:54.252Z,3420.00
2019-01-04T08:25:54.253Z,3548.00
2019-01-04T08:26:54.232Z,3648.00
2019-01-04T08:27:54.216Z,3740.00
2019-01-04T08:28:54.207Z,3840.00
2019-01-04T08:29:54.192Z,3932.00
2019-01-04T08:30:54.182Z,3996.00
2019-01-04T08:31:54.218Z,4068.00
2019-01-04T08:32:54.153Z,4180.00
2019-01-04T08:33:54.144Z,4360.00
2019-01-04T08:34:54.132Z,4552.00
2019-01-04T08:35:54.122Z,4708.00
2019-01-04T08:36:54.112Z,4868.00
2019-01-04T08:37:54.102Z,5000.00
2019-01-04T08:38:54.085Z,5104.00
2019-01-04T08:39:54.078Z,5176.00
2019-01-04T08:40:54.071Z,5208.00
2019-01-04T08:41:54.052Z,5196.00
2019-01-04T08:42:54.040Z,5132.00
2019-01-04T08:43:54.018Z,5072.00
2019-01-04T08:44:54.016Z,5052.00
2019-01-04T08:45:53.999Z,5008.00
2019-01-04T08:46:53.995Z,4988.00
2019-01-04T08:47:53.985Z,4996.00
2019-01-04T08:48:53.972Z,4984.00
2019-01-04T08:49:53.960Z,4996.00
2019-01-04T08:50:53.948Z,5068.00
2019-01-04T08:51:53.938Z,5236.00
2019-01-04T08:52:53.929Z,5404.00
2019-01-04T08:53:53.917Z,5472.00
2019-01-04T08:54:53.909Z,5536.00
2019-01-04T08:55:53.890Z,5388.00
2019-01-04T08:56:53.884Z,5268.00
2019-01-04T08:57:53.873Z,5208.00
2019-01-04T08:58:53.861Z,5236.00
2019-01-04T08:59:53.898Z,5212.00
2019-01-04T09:00:53.839Z,5080.00
2019-01-04T09:01:53.827Z,5216.00
2019-01-04T09:02:53.814Z,5352.00
2019-01-04T09:03:53.822Z,5720.00
2019-01-04T09:04:53.793Z,6080.00
2019-01-04T09:05:53.787Z,6616.00
2019-01-04T09:06:53.773Z,6900.00
2019-01-04T09:07:53.758Z,6988.00
2019-01-04T09:08:53.771Z,6988.00
2019-01-04T09:09:53.764Z,6948.00
2019-01-04T09:10:53.730Z,6888.00
2019-01-04T09:11:53.723Z,6600.00
2019-01-04T09:12:53.701Z,6248.00
2019-01-04T09:13:53.711Z,5772.00
2019-01-04T09:14:53.679Z,5476.00
2019-01-04T09:15:53.677Z,5344.00
2019-01-04T09:16:53.662Z,5384.00
2019-01-04T09:17:53.670Z,5544.00
2019-01-04T09:18:53.641Z,5612.00
2019-01-04T09:19:53.622Z,5684.00
2019-01-04T09:20:53.611Z,5668.00
2019-01-04T09:21:53.611Z,5608.00
2019-01-04T09:22:53.597Z,5672.00
2019-01-04T09:23:53.704Z,5708.00
2019-01-04T09:24:53.576Z,5704.00
2019-01-04T09:25:53.574Z,5700.00
2019-01-04T09:26:53.552Z,5700.00
2019-01-04T09:27:53.546Z,5692.00
2019-01-04T09:28:53.529Z,5576.00
2019-01-04T09:29:53.540Z,5424.00
2019-01-04T09:30:53.506Z,5280.00
2019-01-04T09:31:53.505Z,5044.00
2019-01-04T09:32:53.490Z,4868.00
2019-01-04T09:33:53.478Z,4752.00
2019-01-04T09:34:53.468Z,4736.00
2019-01-04T09:35:53.449Z,4848.00
2019-01-04T09:36:53.442Z,5096.00
2019-01-04T09:37:53.433Z,5580.00
2019-01-04T09:38:53.424Z,6164.00
2019-01-04T09:39:53.420Z,6792.00
2019-01-04T09:40:53.405Z,7416.00
2019-01-04T09:41:53.391Z,8044.00
2019-01-04T09:42:53.378Z,8620.00
2019-01-04T09:43:53.366Z,9404.00
2019-01-04T09:44:53.359Z,10292.00
2019-01-04T09:45:53.352Z,11112.00
2019-01-04T09:46:53.339Z,11792.00
2019-01-04T09:47:53.334Z,12444.00
2019-01-04T09:48:53.316Z,13416.00
2019-01-04T09:49:53.396Z,13856.00
2019-01-04T09:50:53.352Z,13928.00
2019-01-04T09:51:53.289Z,14324.00
2019-01-04T09:52:53.279Z,14620.00
2019-01-04T09:53:53.270Z,14596.00
2019-01-04T09:54:53.261Z,13960.00
2019-01-04T09:55:53.249Z,13532.00
2019-01-04T09:56:53.243Z,13460.00
2019-01-04T09:57:53.234Z,12832.00
2019-01-04T09:58:53.223Z,12260.00
2019-01-04T09:59:53.217Z,11968.00
2019-01-04T10:00:53.198Z,11936.00
2019-01-04T10:01:53.198Z,12088.00
2019-01-04T10:02:53.189Z,12256.00
2019-01-04T10:03:53.179Z,11988.00
2019-01-04T10:04:53.182Z,11892.00
2019-01-04T10:05:53.160Z,11700.00
2019-01-04T10:06:53.200Z,11452.00
2019-01-04T10:07:53.142Z,11396.00
2019-01-04T10:08:53.142Z,11416.00
2019-01-04T10:09:53.131Z,11476.00
2019-01-04T10:10:53.119Z,11008.00
2019-01-04T10:11:53.112Z,10516.00
2019-01-04T10:12:53.132Z,10268.00
2019-01-04T10:13:53.094Z,10164.00
2019-01-04T10:14:53.082Z,10080.00
2019-01-04T10:15:53.084Z,9912.00
2019-01-04T10:16:53.070Z,9832.00
2019-01-04T10:17:53.061Z,9872.00
2019-01-04T10:18:53.052Z,9996.00
2019-01-04T10:19:53.044Z,10104.00
2019-01-04T10:20:53.037Z,10316.00
2019-01-04T10:21:53.025Z,10584.00
2019-01-04T10:22:53.020Z,10804.00
2019-01-04T10:23:53.009Z,11200.00
2019-01-04T10:24:53.001Z,11644.00
2019-01-04T10:25:52.989Z,12096.00
2019-01-04T10:26:52.982Z,12420.00
2019-01-04T10:27:52.974Z,12656.00
2019-01-04T10:28:52.965Z,12884.00
2019-01-04T10:29:52.960Z,12952.00
2019-01-04T10:30:52.948Z,12964.00
2019-01-04T10:31:52.950Z,12948.00
2019-01-04T10:32:52.935Z,12916.00
2019-01-04T10:33:52.914Z,12836.00
2019-01-04T10:34:52.913Z,12620.00
2019-01-04T10:35:52.903Z,12348.00
2019-01-04T10:36:52.897Z,12120.00
2019-01-04T10:37:52.892Z,11816.00
2019-01-04T10:38:52.906Z,11428.00
2019-01-04T10:39:52.876Z,11020.00
2019-01-04T10:40:52.909Z,10904.00
2019-01-04T10:41:54.892Z,10704.00
2019-01-04T10:42:52.844Z,10400.00
2019-01-04T10:43:52.833Z,9832.00
2019-01-04T10:44:52.830Z,9352.00
2019-01-04T10:45:52.823Z,8908.00
2019-01-04T10:46:52.817Z,8248.00
2019-01-04T10:47:52.799Z,8008.00
2019-01-04T10:48:52.797Z,7908.00
2019-01-04T10:49:52.788Z,7908.00
2019-01-04T10:50:52.781Z,7792.00
2019-01-04T10:51:52.777Z,7720.00
2019-01-04T10:52:52.770Z,7672.00
2019-01-04T10:53:52.757Z,8064.00
2019-01-04T10:54:52.747Z,8520.00
2019-01-04T10:55:52.740Z,8980.00
2019-01-04T10:56:52.732Z,10348.00
2019-01-04T10:57:52.722Z,11620.00
2019-01-04T10:58:52.722Z,12916.00
2019-01-04T10:59:52.709Z,13848.00
2019-01-04T11:00:52.691Z,14408.00
2019-01-04T11:01:52.688Z,13732.00
2019-01-04T11:02:52.681Z,13756.00
2019-01-04T11:03:52.679Z,14480.00
2019-01-04T11:04:52.666Z,14560.00
2019-01-04T11:05:52.658Z,14644.00
2019-01-04T11:06:52.650Z,13796.00
2019-01-04T11:07:52.660Z,14000.00
2019-01-04T11:08:52.641Z,15396.00
2019-01-04T11:09:52.629Z,15692.00
2019-01-04T11:10:52.622Z,15404.00
2019-01-04T11:11:52.616Z,15344.00
2019-01-04T11:12:52.619Z,14612.00
2019-01-04T11:13:52.629Z,14452.00
2019-01-04T11:14:52.594Z,13028.00
2019-01-04T11:15:52.612Z,12276.00
2019-01-04T11:16:52.616Z,11636.00
2019-01-04T11:17:52.617Z,11408.00
2019-01-04T11:18:52.573Z,10964.00
2019-01-04T11:19:52.566Z,10236.00
2019-01-04T11:20:52.570Z,9620.00
2019-01-04T11:21:52.563Z,9124.00
2019-01-04T11:22:52.588Z,8744.00
2019-01-04T11:23:52.542Z,8780.00
2019-01-04T11:24:52.583Z,8984.00
2019-01-04T11:25:52.565Z,9472.00
2019-01-04T11:26:52.533Z,9416.00
2019-01-04T11:27:52.515Z,9260.00
2019-01-04T11:28:52.517Z,9488.00
2019-01-04T11:29:52.503Z,10756.00
2019-01-04T11:30:52.497Z,11496.00
2019-01-04T11:31:52.482Z,12672.00
2019-01-04T11:32:52.481Z,15084.00
2019-01-04T11:33:52.476Z,15840.00
2019-01-04T11:34:52.463Z,15396.00
2019-01-04T11:35:52.475Z,15100.00
2019-01-04T11:36:52.459Z,13304.00
2019-01-04T11:37:52.443Z,12604.00
2019-01-04T11:38:52.436Z,12412.00
2019-01-04T11:39:52.458Z,11860.00
2019-01-04T11:40:52.447Z,11480.00
2019-01-04T11:41:52.464Z,11436.00
2019-01-04T11:42:52.451Z,11492.00
2019-01-04T11:43:52.415Z,11796.00
2019-01-04T11:44:52.402Z,11404.00
2019-01-04T11:45:52.397Z,11252.00
2019-01-04T11:46:52.382Z,11796.00
2019-01-04T11:47:52.386Z,11560.00
2019-01-04T11:48:52.372Z,12808.00
2019-01-04T11:49:52.371Z,12800.00
2019-01-04T11:50:52.365Z,12656.00
2019-01-04T11:51:52.360Z,12728.00
2019-01-04T11:52:52.354Z,12856.00
2019-01-04T11:53:52.355Z,12776.00
2019-01-04T11:54:52.339Z,12620.00
2019-01-04T11:55:52.336Z,12908.00
2019-01-04T11:56:52.330Z,13004.00
2019-01-04T11:57:52.330Z,13236.00
2019-01-04T11:58:52.317Z,13240.00
2019-01-04T11:59:52.306Z,12964.00
2019-01-04T12:00:52.304Z,12924.00
2019-01-04T12:01:52.308Z,13000.00
2019-01-04T12:02:52.290Z,12084.00
2019-01-04T12:03:52.287Z,12028.00
2019-01-04T12:04:52.277Z,11468.00
2019-01-04T12:05:52.270Z,11800.00
2019-01-04T12:06:52.266Z,11948.00
2019-01-04T12:07:52.261Z,11988.00
2019-01-04T12:08:52.253Z,12000.00
2019-01-04T12:09:52.249Z,12444.00
2019-01-04T12:10:52.237Z,12736.00
2019-01-04T12:11:52.411Z,13036.00
2019-01-04T12:12:52.227Z,13448.00
2019-01-04T12:13:52.218Z,13624.00
2019-01-04T12:14:52.214Z,13696.00
2019-01-04T12:15:52.204Z,13628.00
2019-01-04T12:16:52.201Z,13464.00
2019-01-04T12:17:52.187Z,12972.00
2019-01-04T12:18:52.186Z,12384.00
2019-01-04T12:19:52.178Z,11744.00
2019-01-04T12:20:52.172Z,11316.00
2019-01-04T12:21:53.870Z,11060.00
2019-01-04T12:22:52.157Z,10920.00
2019-01-04T12:23:52.151Z,10872.00
2019-01-04T12:24:52.143Z,10832.00
2019-01-04T12:25:52.133Z,10756.00
2019-01-04T12:26:52.128Z,10624.00
2019-01-04T12:27:52.120Z,10552.00
2019-01-04T12:28:52.140Z,10596.00
2019-01-04T12:29:52.108Z,10772.00
2019-01-04T12:30:52.101Z,11044.00
2019-01-04T12:31:52.098Z,11336.00
2019-01-04T12:32:52.085Z,11772.00
2019-01-04T12:33:52.115Z,12260.00
2019-01-04T12:34:52.074Z,12664.00
2019-01-04T12:35:52.064Z,13044.00
2019-01-04T12:36:52.054Z,13416.00
2019-01-04T12:37:52.045Z,13780.00
2019-01-04T12:38:52.042Z,14080.00
2019-01-04T12:39:52.022Z,14080.00